Egegik Airport Egegik US
ICAO: PAII
IATA:
Category: Medium
Scheduled Services:

Elevation: 92 ft
TransAlt. 18000 ft.

Airport Communications:
ANCHORAGE CNTR:124.8
AWOS 3:135.65
CTAF:122.8

PAII Zoom In..

Runways:

(A) RW 03 length 1500 ft width 75 ft
---- / hdg 32

(B) RW 12 length 5600 ft width 100 ft
---- / hdg 122

(C) RW 21 length 1500 ft width 75 ft
---- / hdg 212

(D) RW 30 length 5600 ft width 100 ft
---- / hdg 302

Location; PAII
Day. 19 / Time. 19.56 Zulu
* Altimeter: 30.25
* Temperature: 12° c. 53.6°f.
* Wind from: 120° Speed 11 kn with Gusts up to 17 kn.
Dewpoint: 08° c.
Visibility: 10 Statute Miles.
Clouds: Overcast 1600 ft.

PAII 191956Z AUTO 12011G17KT 10SM OVC016 12/08 A3025 RMK AO2 SLP249 T01220078


Wind From 120°
Speed 11 kn.

 
 
jpsmedia.com for Web Design worldairports.se 2018   terms of use